createdAt,value
2023-04-18T00:00:27.845Z,100242.91
2023-04-18T00:02:56.274Z,100240.37
2023-04-18T00:05:24.608Z,100238.59
2023-04-18T00:07:53.440Z,100236.23
2023-04-18T00:10:21.700Z,100235.69
2023-04-18T00:12:49.747Z,100231.45
2023-04-18T00:15:18.613Z,100234.90
2023-04-18T00:17:48.289Z,100232.58
2023-04-18T00:20:16.377Z,100232.20
2023-04-18T00:22:46.718Z,100231.32
2023-04-18T00:25:14.902Z,100228.20
2023-04-18T00:27:43.469Z,100231.27
2023-04-18T00:30:11.965Z,100231.98
2023-04-18T00:32:40.303Z,100238.14
2023-04-18T00:35:08.759Z,100235.62
2023-04-18T00:37:37.498Z,100236.90
2023-04-18T00:40:06.465Z,100236.95
2023-04-18T00:42:35.095Z,100235.34
2023-04-18T00:45:03.138Z,100232.06
2023-04-18T00:47:31.337Z,100233.81
2023-04-18T00:49:59.663Z,100232.77
2023-04-18T00:52:27.933Z,100230.55
2023-04-18T00:54:56.193Z,100226.04
2023-04-18T00:57:24.576Z,100231.42
2023-04-18T00:59:52.632Z,100226.02
2023-04-18T01:02:20.798Z,100225.95
2023-04-18T01:04:49.220Z,100222.91
2023-04-18T01:07:17.709Z,100224.23
2023-04-18T01:09:45.799Z,100222.14
2023-04-18T01:12:14.198Z,100222.38
2023-04-18T01:14:43.126Z,100220.28
2023-04-18T01:17:13.521Z,100221.39
2023-04-18T01:19:41.675Z,100222.70
2023-04-18T01:23:04.014Z,100217.63
2023-04-18T01:25:32.808Z,100219.30
2023-04-18T01:28:01.081Z,100219.41
2023-04-18T01:30:29.484Z,100220.27
2023-04-18T01:33:03.626Z,100220.05
2023-04-18T01:35:32.436Z,100221.76
2023-04-18T01:38:00.752Z,100221.02
2023-04-18T01:40:30.149Z,100218.01
2023-04-18T01:42:58.110Z,100216.77
2023-04-18T01:45:26.130Z,100217.98
2023-04-18T01:47:54.190Z,100217.27
2023-04-18T01:50:22.370Z,100212.05
2023-04-18T01:52:50.495Z,100218.30
2023-04-18T01:55:18.569Z,100213.41
2023-04-18T01:57:46.586Z,100213.77
2023-04-18T02:00:14.795Z,100213.33
2023-04-18T02:02:43.281Z,100209.70
2023-04-18T02:05:11.541Z,100215.33
2023-04-18T02:07:41.247Z,100208.70
2023-04-18T02:10:11.041Z,100210.09
2023-04-18T02:12:39.046Z,100208.77
2023-04-18T02:15:07.694Z,100203.40
2023-04-18T02:17:37.991Z,100203.01
2023-04-18T02:20:09.299Z,100199.84
2023-04-18T02:22:40.663Z,100206.65
2023-04-18T02:25:12.875Z,100202.92
2023-04-18T02:27:43.323Z,100205.62
2023-04-18T02:30:16.495Z,100209.02
2023-04-18T02:32:59.007Z,100205.06
2023-04-18T02:35:43.541Z,100208.42
2023-04-18T02:38:21.793Z,100207.85
2023-04-18T02:41:01.152Z,100210.34
2023-04-18T02:43:37.402Z,100210.95
2023-04-18T02:46:13.149Z,100203.10
2023-04-18T02:48:45.572Z,100202.00
2023-04-18T02:51:17.072Z,100208.97
2023-04-18T02:53:49.428Z,100209.05
2023-04-18T02:56:28.220Z,100206.90
2023-04-18T02:59:15.100Z,100206.67
2023-04-18T03:02:03.996Z,100206.90
2023-04-18T03:04:33.187Z,100205.44
2023-04-18T03:07:03.486Z,100204.59
2023-04-18T03:09:35.092Z,100203.36
2023-04-18T03:12:07.177Z,100198.63
2023-04-18T03:14:36.347Z,100201.85
2023-04-18T03:17:04.863Z,100199.89
2023-04-18T03:19:37.910Z,100204.20
2023-04-18T03:22:09.308Z,100207.25
2023-04-18T03:24:40.914Z,100204.63
2023-04-18T03:27:09.347Z,100208.66
2023-04-18T03:29:38.629Z,100208.35
2023-04-18T03:32:07.242Z,100207.08
2023-04-18T03:34:36.113Z,100211.52
2023-04-18T03:37:05.459Z,100211.02
2023-04-18T03:39:37.599Z,100211.39
2023-04-18T03:42:06.084Z,100213.96
2023-04-18T03:44:35.254Z,100215.00
2023-04-18T03:47:04.412Z,100211.32
2023-04-18T03:49:33.098Z,100213.64
2023-04-18T03:52:01.678Z,100213.59
2023-04-18T03:54:30.002Z,100216.06
2023-04-18T03:56:59.506Z,100217.21
2023-04-18T03:59:27.854Z,100215.69
2023-04-18T04:01:56.202Z,100215.66
2023-04-18T04:04:24.614Z,100218.80
2023-04-18T04:06:52.946Z,100218.34
2023-04-18T04:09:21.535Z,100216.91
2023-04-18T04:11:51.149Z,100215.45
2023-04-18T04:14:20.091Z,100216.12
2023-04-18T04:16:48.139Z,100217.32
2023-04-18T04:19:17.806Z,100216.92
2023-04-18T04:21:54.863Z,100213.31
2023-04-18T04:24:23.086Z,100213.27
2023-04-18T04:26:53.032Z,100212.98
2023-04-18T04:29:23.972Z,100221.36
2023-04-18T04:31:52.877Z,100214.17
2023-04-18T04:34:28.658Z,100218.13
2023-04-18T04:36:56.877Z,100213.98
2023-04-18T04:39:25.889Z,100213.04
2023-04-18T04:42:13.446Z,100210.92
2023-04-18T04:44:50.537Z,100210.27
2023-04-18T04:47:19.511Z,100211.05
2023-04-18T04:49:47.845Z,100213.69
2023-04-18T04:52:16.148Z,100213.95
2023-04-18T04:54:45.934Z,100214.13
2023-04-18T04:57:15.638Z,100215.86
2023-04-18T04:59:43.878Z,100219.64
2023-04-18T05:02:12.414Z,100224.04
2023-04-18T05:04:40.600Z,100224.13
2023-04-18T05:07:08.613Z,100226.73
2023-04-18T05:09:36.778Z,100224.14
2023-04-18T05:12:05.266Z,100226.15
2023-04-18T05:14:33.267Z,100227.94
2023-04-18T05:17:01.320Z,100226.80
2023-04-18T05:19:29.626Z,100228.55
2023-04-18T05:21:57.540Z,100222.09
2023-04-18T05:24:25.590Z,100218.63
2023-04-18T05:26:53.893Z,100217.11
2023-04-18T05:29:21.905Z,100220.00
2023-04-18T05:31:50.391Z,100228.92
2023-04-18T05:34:18.449Z,100231.36
2023-04-18T05:36:48.055Z,100230.66
2023-04-18T05:39:17.064Z,100228.58
2023-04-18T05:41:45.175Z,100226.52
2023-04-18T05:44:13.320Z,100227.73
2023-04-18T05:46:41.618Z,100225.23
2023-04-18T05:49:10.052Z,100222.79
2023-04-18T05:51:38.184Z,100219.86
2023-04-18T05:54:06.274Z,100221.05
2023-04-18T05:56:34.444Z,100221.45
2023-04-18T05:59:02.497Z,100225.02
2023-04-18T06:01:30.518Z,100226.80
2023-04-18T06:03:58.698Z,100220.10
2023-04-18T06:06:27.751Z,100227.95
2023-04-18T06:08:56.023Z,100221.73
2023-04-18T06:11:24.025Z,100218.80
2023-04-18T06:13:52.057Z,100218.16
2023-04-18T06:16:20.435Z,100217.83
2023-04-18T06:18:48.472Z,100217.59
2023-04-18T06:21:16.698Z,100218.45
2023-04-18T06:23:44.739Z,100214.99
2023-04-18T06:26:12.841Z,100216.30
2023-04-18T06:28:41.089Z,100215.09
2023-04-18T06:31:09.377Z,100217.25
2023-04-18T06:33:37.929Z,100217.54
2023-04-18T06:36:07.350Z,100217.10
2023-04-18T06:38:35.810Z,100220.30
2023-04-18T06:41:03.921Z,100219.86
2023-04-18T06:43:32.135Z,100218.69
2023-04-18T06:46:01.311Z,100220.64
2023-04-18T06:48:29.875Z,100216.60
2023-04-18T06:50:57.937Z,100216.17
2023-04-18T06:53:26.087Z,100216.85
2023-04-18T06:55:54.155Z,100219.30
2023-04-18T06:58:22.422Z,100220.89
2023-04-18T07:00:52.114Z,100221.38
2023-04-18T07:03:20.538Z,100219.40
2023-04-18T07:05:50.451Z,100216.52
2023-04-18T07:08:18.813Z,100221.83
2023-04-18T07:10:47.164Z,100222.89
2023-04-18T07:13:16.036Z,100217.50
2023-04-18T07:15:44.169Z,100211.76
2023-04-18T07:18:16.068Z,100215.48
2023-04-18T07:20:46.320Z,100222.04
2023-04-18T07:23:14.318Z,100219.95
2023-04-18T07:25:42.503Z,100219.12
2023-04-18T07:28:10.689Z,100215.71
2023-04-18T07:30:38.770Z,100213.98
2023-04-18T07:33:07.536Z,100214.59
2023-04-18T07:35:36.171Z,100214.27
2023-04-18T07:38:04.211Z,100214.30
2023-04-18T07:40:32.309Z,100218.60
2023-04-18T07:43:00.550Z,100217.86
2023-04-18T07:45:28.676Z,100216.15
2023-04-18T07:47:57.104Z,100210.58
2023-04-18T07:50:25.210Z,100210.56
2023-04-18T07:52:53.230Z,100215.51
2023-04-18T07:55:21.731Z,100218.00
2023-04-18T07:57:50.583Z,100217.16
2023-04-18T08:00:18.761Z,100220.36
2023-04-18T08:02:46.931Z,100215.70
2023-04-18T08:05:15.516Z,100214.88
2023-04-18T08:07:43.745Z,100211.69
2023-04-18T08:10:12.122Z,100211.11
2023-04-18T08:12:40.738Z,100206.28
2023-04-18T08:15:09.176Z,100208.05
2023-04-18T08:17:39.147Z,100209.95
2023-04-18T08:20:07.820Z,100210.15
2023-04-18T08:22:43.551Z,100202.49
2023-04-18T08:25:18.522Z,100201.02
2023-04-18T08:27:46.554Z,100205.77
2023-04-18T08:30:14.785Z,100203.00
2023-04-18T08:32:42.879Z,100200.70
2023-04-18T08:35:10.897Z,100199.95
2023-04-18T08:37:39.170Z,100205.20
2023-04-18T08:40:07.729Z,100203.96
2023-04-18T08:42:36.560Z,100205.83
2023-04-18T08:45:06.244Z,100204.23
2023-04-18T08:47:35.443Z,100201.56
2023-04-18T08:50:04.036Z,100199.75
2023-04-18T08:52:32.654Z,100201.85
2023-04-18T08:55:02.938Z,100197.80
2023-04-18T08:57:31.547Z,100199.35
2023-04-18T09:00:02.362Z,100192.28
2023-04-18T09:02:42.783Z,100187.61
2023-04-18T09:05:16.481Z,100189.80
2023-04-18T09:07:44.935Z,100186.45
2023-04-18T09:10:13.944Z,100188.66
2023-04-18T09:12:52.433Z,100179.38
2023-04-18T09:15:23.806Z,100176.16
2023-04-18T09:17:54.561Z,100172.31
2023-04-18T09:20:38.197Z,100164.06
2023-04-18T09:23:11.232Z,100166.68
2023-04-18T09:25:45.417Z,100161.91
2023-04-18T09:28:30.092Z,100166.33
2023-04-18T09:30:59.737Z,100167.31
2023-04-18T09:33:32.607Z,100166.94
2023-04-18T09:36:18.273Z,100164.70
2023-04-18T09:38:46.856Z,100163.17
2023-04-18T09:41:20.067Z,100163.36
2023-04-18T09:43:49.367Z,100162.56
2023-04-18T09:46:22.673Z,100163.08
2023-04-18T09:48:51.103Z,100163.44
2023-04-18T09:51:19.094Z,100161.31
2023-04-18T09:53:50.346Z,100156.17
2023-04-18T09:56:28.378Z,100154.09
2023-04-18T09:58:57.389Z,100151.55
2023-04-18T10:01:28.599Z,100144.59
2023-04-18T10:03:56.848Z,100143.57
2023-04-18T10:06:24.997Z,100141.25
2023-04-18T10:08:52.959Z,100143.32
2023-04-18T10:11:22.041Z,100143.98
2023-04-18T10:13:50.159Z,100140.19
2023-04-18T10:16:18.382Z,100136.72
2023-04-18T10:18:46.407Z,100133.16
2023-04-18T10:21:15.374Z,100133.75
2023-04-18T10:23:43.336Z,100132.60
2023-04-18T10:26:11.417Z,100131.28
2023-04-18T10:28:54.323Z,100138.02
2023-04-18T10:31:23.844Z,100135.61
2023-04-18T10:36:30.275Z,100136.27
2023-04-18T10:39:04.326Z,100138.70
2023-04-18T10:41:33.894Z,100137.60
2023-04-18T10:44:22.025Z,100134.00
2023-04-18T10:46:52.950Z,100143.81
2023-04-18T10:49:32.957Z,100141.66
2023-04-18T10:52:02.119Z,100141.67
2023-04-18T10:54:43.915Z,100143.30
2023-04-18T10:57:13.373Z,100140.72
2023-04-18T10:59:42.378Z,100140.27
2023-04-18T11:02:26.438Z,100135.83
2023-04-18T11:04:58.446Z,100137.64
2023-04-18T11:07:36.291Z,100142.88
2023-04-18T11:10:08.391Z,100143.38
2023-04-18T11:12:39.900Z,100146.68
2023-04-18T11:15:12.661Z,100144.77
2023-04-18T11:17:41.254Z,100148.48
2023-04-18T11:20:14.325Z,100149.02
2023-04-18T11:22:49.456Z,100148.38
2023-04-18T11:25:18.727Z,100142.95
2023-04-18T11:27:47.915Z,100147.86
2023-04-18T11:30:16.367Z,100139.73
2023-04-18T11:32:44.716Z,100139.09
2023-04-18T11:35:14.065Z,100140.02
2023-04-18T11:37:43.086Z,100135.36
2023-04-18T11:40:11.861Z,100134.31
2023-04-18T11:42:40.657Z,100135.33
2023-04-18T11:45:12.776Z,100137.70
2023-04-18T11:47:43.070Z,100140.87
2023-04-18T11:50:12.249Z,100141.05
2023-04-18T11:52:41.425Z,100138.76
2023-04-18T11:55:23.993Z,100139.38
2023-04-18T11:57:58.228Z,100138.43
2023-04-18T12:00:32.939Z,100128.11
2023-04-18T12:03:02.221Z,100131.11
2023-04-18T12:05:32.132Z,100125.88
2023-04-18T12:08:10.011Z,100132.57
2023-04-18T12:10:38.437Z,100131.84
2023-04-18T12:13:08.392Z,100139.35
2023-04-18T12:15:38.834Z,100137.55
2023-04-18T12:18:09.768Z,100136.48
2023-04-18T12:20:39.673Z,100135.98
2023-04-18T12:23:08.119Z,100136.14
2023-04-18T12:25:36.891Z,100132.95
2023-04-18T12:28:15.193Z,100127.84
2023-04-18T12:30:43.381Z,100127.24
2023-04-18T12:33:13.957Z,100122.38
2023-04-18T12:35:42.651Z,100119.21
2023-04-18T12:38:11.103Z,100116.15
2023-04-18T12:40:39.884Z,100117.48
2023-04-18T12:43:08.276Z,100111.95
2023-04-18T12:45:36.465Z,100111.67
2023-04-18T12:48:04.809Z,100109.77
2023-04-18T12:50:33.004Z,100108.80
2023-04-18T12:53:01.595Z,100103.34
2023-04-18T12:55:29.712Z,100103.20
2023-04-18T12:57:58.312Z,100107.14
2023-04-18T13:00:32.860Z,100110.35
2023-04-18T13:03:11.762Z,100114.30
2023-04-18T13:05:49.173Z,100114.70
2023-04-18T13:08:22.652Z,100113.02
2023-04-18T13:10:57.371Z,100113.36
2023-04-18T13:13:29.420Z,100115.16
2023-04-18T13:16:00.114Z,100118.67
2023-04-18T13:18:44.554Z,100118.48
2023-04-18T13:21:14.839Z,100118.45
2023-04-18T13:23:53.659Z,100117.65
2023-04-18T13:26:29.152Z,100117.89
2023-04-18T13:29:07.904Z,100114.33
2023-04-18T13:31:50.100Z,100116.85
2023-04-18T13:34:24.657Z,100118.10
2023-04-18T13:37:09.985Z,100114.91
2023-04-18T13:51:32.264Z,100111.08
2023-04-18T13:54:16.752Z,100112.33
2023-04-18T13:56:48.733Z,100114.34
2023-04-18T13:59:24.683Z,100110.40
2023-04-18T14:02:08.200Z,100109.21
2023-04-18T14:04:37.120Z,100099.63
2023-04-18T14:07:08.734Z,100091.80
2023-04-18T14:09:38.948Z,100091.91
2023-04-18T14:12:22.473Z,100095.80
2023-04-18T14:17:44.034Z,100091.58
2023-04-18T14:20:15.748Z,100088.45
2023-04-18T14:22:43.838Z,100084.67
2023-04-18T14:25:11.836Z,100084.95
2023-04-18T14:27:40.433Z,100082.84
2023-04-18T14:30:09.268Z,100081.19
2023-04-18T14:32:37.604Z,100079.79
2023-04-18T14:35:07.327Z,100080.52
2023-04-18T14:37:36.395Z,100079.48
2023-04-18T14:40:05.948Z,100077.69
2023-04-18T14:42:34.271Z,100080.14
2023-04-18T14:45:03.005Z,100080.05
2023-04-18T14:47:34.742Z,100074.03
2023-04-18T14:50:02.941Z,100072.75
2023-04-18T14:52:31.369Z,100073.83
2023-04-18T14:54:59.384Z,100073.34
2023-04-18T14:57:29.662Z,100075.12
2023-04-18T14:59:57.639Z,100073.45
2023-04-18T15:02:26.642Z,100071.70
2023-04-18T15:04:56.822Z,100071.34
2023-04-18T15:07:24.967Z,100068.73
2023-04-18T15:09:53.256Z,100067.65
2023-04-18T15:12:22.272Z,100062.89
2023-04-18T15:14:50.337Z,100061.55
2023-04-18T15:17:18.478Z,100059.58
2023-04-18T15:19:46.485Z,100059.09
2023-04-18T15:22:14.488Z,100056.14
2023-04-18T15:24:42.549Z,100053.27
2023-04-18T15:27:10.973Z,100051.95
2023-04-18T15:29:39.583Z,100052.09
2023-04-18T15:32:09.352Z,100049.63
2023-04-18T15:34:37.394Z,100049.10
2023-04-18T15:37:05.632Z,100047.80
2023-04-18T15:39:33.684Z,100039.25
2023-04-18T15:42:02.362Z,100043.06
2023-04-18T15:44:50.452Z,100038.31
2023-04-18T15:47:18.618Z,100037.73
2023-04-18T15:49:47.249Z,100034.38
2023-04-18T15:52:16.086Z,100031.70
2023-04-18T15:54:44.120Z,100032.56
2023-04-18T15:57:12.228Z,100030.79
2023-04-18T15:59:40.352Z,100026.95
2023-04-18T16:02:09.020Z,100026.81
2023-04-18T16:04:38.493Z,100027.70
2023-04-18T16:07:07.352Z,100022.35
2023-04-18T16:09:35.880Z,100028.50
2023-04-18T16:12:04.898Z,100026.73
2023-04-18T16:14:33.897Z,100024.33
2023-04-18T16:17:02.956Z,100029.44
2023-04-18T16:19:32.953Z,100032.52
2023-04-18T16:22:07.282Z,100024.66
2023-04-18T16:24:35.587Z,100027.77
2023-04-18T16:27:03.849Z,100028.17
2023-04-18T16:29:31.967Z,100023.11
2023-04-18T16:32:03.202Z,100021.20
2023-04-18T16:34:31.347Z,100020.38
2023-04-18T16:36:59.632Z,100020.36
2023-04-18T16:39:29.252Z,100022.46
2023-04-18T16:41:57.727Z,100024.77
2023-04-18T16:44:26.459Z,100020.41
2023-04-18T16:46:55.170Z,100022.77
2023-04-18T16:49:23.786Z,100018.45
2023-04-18T16:51:52.131Z,100016.27
2023-04-18T16:54:20.637Z,100016.70
2023-04-18T16:56:48.737Z,100015.87
2023-04-18T16:59:18.098Z,100020.26
2023-04-18T17:01:46.731Z,100017.48
2023-04-18T17:04:15.848Z,100015.69
2023-04-18T17:06:44.787Z,100017.68
2023-04-18T17:09:16.413Z,100015.20
2023-04-18T17:11:45.154Z,100017.03
2023-04-18T17:14:13.719Z,100009.11
2023-04-18T17:16:42.631Z,100009.43
2023-04-18T17:19:11.672Z,100008.80
2023-04-18T17:21:39.997Z,100009.03
2023-04-18T17:24:09.366Z,100007.28
2023-04-18T17:26:38.543Z,100011.44
2023-04-18T17:29:06.520Z,100008.63
2023-04-18T17:31:34.727Z,100008.52
2023-04-18T17:34:03.821Z,100006.05
2023-04-18T17:36:32.861Z,100006.73
2023-04-18T17:39:06.809Z,100002.73
2023-04-18T17:41:39.479Z,100000.95
2023-04-18T17:44:08.372Z,99998.25
2023-04-18T17:46:37.002Z,99998.99
2023-04-18T17:49:08.630Z,99993.66
2023-04-18T17:51:36.898Z,99991.75
2023-04-18T17:54:05.575Z,99991.75
2023-04-18T17:56:33.946Z,99991.08
2023-04-18T17:59:02.635Z,99989.81
2023-04-18T18:01:30.806Z,99985.06
2023-04-18T18:03:58.965Z,99984.20
2023-04-18T18:06:30.548Z,99983.27
2023-04-18T18:08:58.739Z,99981.17
2023-04-18T18:11:27.807Z,99978.48
2023-04-18T18:13:57.646Z,99978.21
2023-04-18T18:16:26.034Z,99974.78
2023-04-18T18:18:54.791Z,99972.18
2023-04-18T18:21:23.218Z,99967.62
2023-04-18T18:23:51.449Z,99964.77
2023-04-18T18:26:19.719Z,99962.80
2023-04-18T18:28:47.871Z,99959.39
2023-04-18T18:31:16.917Z,99957.16
2023-04-18T18:33:45.119Z,99956.55
2023-04-18T18:36:13.241Z,99953.38
2023-04-18T18:38:41.702Z,99951.02
2023-04-18T18:41:10.057Z,99952.61
2023-04-18T18:43:38.075Z,99944.90
2023-04-18T18:46:06.183Z,99944.85
2023-04-18T18:48:38.198Z,99940.66
2023-04-18T18:51:06.312Z,99935.62
2023-04-18T18:53:34.922Z,99934.99
2023-04-18T18:56:05.429Z,99928.45
2023-04-18T18:58:34.867Z,99928.55
2023-04-18T19:01:03.644Z,99924.89
2023-04-18T19:03:32.758Z,99923.62
2023-04-18T19:06:03.955Z,99924.20
2023-04-18T19:08:32.217Z,99919.49
2023-04-18T19:11:00.357Z,99915.02
2023-04-18T19:13:28.873Z,99911.33
2023-04-18T19:15:57.233Z,99914.69
2023-04-18T19:18:25.995Z,99913.02
2023-04-18T19:20:55.089Z,99908.60
2023-04-18T19:23:25.276Z,99907.80
2023-04-18T19:25:53.468Z,99907.52
2023-04-18T19:28:23.250Z,99906.08
2023-04-18T19:30:53.119Z,99901.95
2023-04-18T19:33:24.302Z,99901.39
2023-04-18T19:35:52.310Z,99897.80
2023-04-18T19:38:20.771Z,99891.13
2023-04-18T19:40:48.858Z,99889.09
2023-04-18T19:43:17.085Z,99889.34
2023-04-18T19:45:45.594Z,99888.02
2023-04-18T19:48:13.750Z,99888.65
2023-04-18T19:50:42.422Z,99887.31
2023-04-18T19:53:11.053Z,99886.71
2023-04-18T19:55:39.280Z,99883.59
2023-04-18T19:58:07.646Z,99883.98
2023-04-18T20:00:35.961Z,99885.40
2023-04-18T20:03:04.634Z,99879.10
2023-04-18T20:05:33.250Z,99876.90
2023-04-18T20:08:01.311Z,99875.11
2023-04-18T20:10:29.970Z,99871.14
2023-04-18T20:12:58.261Z,99871.21
2023-04-18T20:15:26.167Z,99872.02
2023-04-18T20:17:54.138Z,99868.27
2023-04-18T20:20:23.537Z,99869.69
2023-04-18T20:22:51.584Z,99868.84
2023-04-18T20:25:19.709Z,99866.63
2023-04-18T20:27:48.319Z,99864.42
2023-04-18T20:30:16.285Z,99863.56
2023-04-18T20:32:44.575Z,99861.09
2023-04-18T20:35:12.899Z,99859.33
2023-04-18T20:37:41.477Z,99857.44
2023-04-18T20:40:10.072Z,99849.77
2023-04-18T20:42:39.028Z,99847.55
2023-04-18T20:45:11.309Z,99847.53
2023-04-18T20:47:41.492Z,99842.27
2023-04-18T20:50:10.151Z,99840.13
2023-04-18T20:52:38.623Z,99838.32
2023-04-18T20:55:06.728Z,99839.12
2023-04-18T20:57:35.968Z,99837.08
2023-04-18T21:00:06.742Z,99833.22
2023-04-18T21:02:36.220Z,99829.89
2023-04-18T21:05:04.709Z,99830.41
2023-04-18T21:07:32.879Z,99828.89
2023-04-18T21:10:00.888Z,99828.36
2023-04-18T21:12:29.379Z,99825.43
2023-04-18T21:14:57.449Z,99824.95
2023-04-18T21:17:25.917Z,99822.32
2023-04-18T21:19:54.966Z,99821.09
2023-04-18T21:22:22.943Z,99814.39
2023-04-18T21:24:50.824Z,99811.64
2023-04-18T21:27:18.895Z,99815.73
2023-04-18T21:29:46.815Z,99817.29
2023-04-18T21:32:14.750Z,99817.54
2023-04-18T21:34:42.754Z,99816.67
2023-04-18T21:37:10.677Z,99812.45
2023-04-18T21:39:39.487Z,99811.41
2023-04-18T21:42:07.565Z,99812.61
2023-04-18T21:44:36.222Z,99810.56
2023-04-18T21:47:04.233Z,99808.85
2023-04-18T21:49:32.253Z,99808.46
2023-04-18T21:52:00.580Z,99812.59
2023-04-18T21:54:28.547Z,99816.21
2023-04-18T21:56:57.009Z,99821.17
2023-04-18T21:59:25.099Z,99818.78
2023-04-18T22:01:53.090Z,99809.01
2023-04-18T22:04:26.118Z,99811.09
2023-04-18T22:06:54.732Z,99811.91
2023-04-18T22:09:23.521Z,99808.52
2023-04-18T22:11:51.962Z,99806.45
2023-04-18T22:14:20.088Z,99807.27
2023-04-18T22:16:50.220Z,99807.84
2023-04-18T22:19:19.505Z,99801.45
2023-04-18T22:21:47.583Z,99798.23
2023-04-18T22:24:15.822Z,99799.66
2023-04-18T22:26:44.152Z,99800.86
2023-04-18T22:29:12.173Z,99798.70
2023-04-18T22:31:40.280Z,99792.89
2023-04-18T22:34:08.256Z,99790.64
2023-04-18T22:36:36.443Z,99789.43
2023-04-18T22:39:06.282Z,99785.61
2023-04-18T22:41:36.917Z,99785.99
2023-04-18T22:44:04.976Z,99779.70
2023-04-18T22:46:33.349Z,99776.88
2023-04-18T22:49:01.347Z,99771.73
2023-04-18T22:51:29.556Z,99767.90
2023-04-18T22:53:57.525Z,99764.35
2023-04-18T22:56:26.116Z,99762.49
2023-04-18T22:58:54.260Z,99755.91
2023-04-18T23:01:22.447Z,99750.66
2023-04-18T23:03:50.706Z,99752.91
2023-04-18T23:06:18.842Z,99747.11
2023-04-18T23:08:47.216Z,99744.12
2023-04-18T23:11:15.911Z,99742.16
2023-04-18T23:13:44.428Z,99739.48
2023-04-18T23:16:12.482Z,99738.90
2023-04-18T23:18:40.473Z,99741.52
2023-04-18T23:21:08.447Z,99740.05
2023-04-18T23:23:36.428Z,99737.43
2023-04-18T23:26:25.476Z,99735.05
2023-04-18T23:28:53.647Z,99733.54
2023-04-18T23:31:21.843Z,99732.15
2023-04-18T23:33:49.998Z,99731.65
2023-04-18T23:36:18.007Z,99727.86
2023-04-18T23:38:46.913Z,99725.37
2023-04-18T23:41:15.933Z,99727.31
2023-04-18T23:43:44.742Z,99718.73
2023-04-18T23:46:13.313Z,99720.41
2023-04-18T23:48:41.674Z,99725.09
2023-04-18T23:51:10.001Z,99720.12
2023-04-18T23:53:39.985Z,99722.52
2023-04-18T23:56:08.441Z,99721.02
2023-04-18T23:58:36.848Z,99719.04
